sensor_id;sensor_type;location;lat;lon;timestamp;temperature;humidity
41644;DHT22;44236;48.098;11.582;2023-04-15T00:00:37;19.30;44.20
41644;DHT22;44236;48.098;11.582;2023-04-15T00:03:02;18.70;44.00
41644;DHT22;44236;48.098;11.582;2023-04-15T00:05:29;18.70;44.00
41644;DHT22;44236;48.098;11.582;2023-04-15T00:07:56;18.70;43.90
41644;DHT22;44236;48.098;11.582;2023-04-15T00:10:22;18.70;43.90
41644;DHT22;44236;48.098;11.582;2023-04-15T00:12:47;18.70;43.90
41644;DHT22;44236;48.098;11.582;2023-04-15T00:15:13;18.70;43.80
41644;DHT22;44236;48.098;11.582;2023-04-15T00:17:39;18.70;43.80
41644;DHT22;44236;48.098;11.582;2023-04-15T00:20:05;18.70;44.40
41644;DHT22;44236;48.098;11.582;2023-04-15T00:22:31;18.70;43.80
41644;DHT22;44236;48.098;11.582;2023-04-15T00:24:57;18.70;43.90
41644;DHT22;44236;48.098;11.582;2023-04-15T00:27:23;18.70;43.90
41644;DHT22;44236;48.098;11.582;2023-04-15T00:29:48;18.70;43.80
41644;DHT22;44236;48.098;11.582;2023-04-15T00:32:14;18.70;43.90
41644;DHT22;44236;48.098;11.582;2023-04-15T00:34:40;18.70;43.80
41644;DHT22;44236;48.098;11.582;2023-04-15T00:37:06;18.70;43.80
41644;DHT22;44236;48.098;11.582;2023-04-15T00:39:32;18.70;43.80
41644;DHT22;44236;48.098;11.582;2023-04-15T00:41:57;18.70;43.80
41644;DHT22;44236;48.098;11.582;2023-04-15T00:44:23;18.70;43.80
41644;DHT22;44236;48.098;11.582;2023-04-15T00:46:50;18.70;43.80
41644;DHT22;44236;48.098;11.582;2023-04-15T00:49:16;18.70;43.70
41644;DHT22;44236;48.098;11.582;2023-04-15T00:51:43;18.70;43.80
41644;DHT22;44236;48.098;11.582;2023-04-15T00:54:09;18.70;43.80
41644;DHT22;44236;48.098;11.582;2023-04-15T00:56:36;18.70;43.80
41644;DHT22;44236;48.098;11.582;2023-04-15T00:59:03;18.70;43.80
41644;DHT22;44236;48.098;11.582;2023-04-15T01:01:29;18.70;43.70
41644;DHT22;44236;48.098;11.582;2023-04-15T01:03:56;18.60;43.70
41644;DHT22;44236;48.098;11.582;2023-04-15T01:06:23;18.70;43.70
41644;DHT22;44236;48.098;11.582;2023-04-15T01:08:48;18.70;43.70
41644;DHT22;44236;48.098;11.582;2023-04-15T01:11:15;18.70;43.70
41644;DHT22;44236;48.098;11.582;2023-04-15T01:13:41;18.60;43.60
41644;DHT22;44236;48.098;11.582;2023-04-15T01:16:08;18.60;43.60
41644;DHT22;44236;48.098;11.582;2023-04-15T01:18:35;18.60;43.60
41644;DHT22;44236;48.098;11.582;2023-04-15T01:21:02;18.60;43.60
41644;DHT22;44236;48.098;11.582;2023-04-15T01:23:29;18.60;43.60
41644;DHT22;44236;48.098;11.582;2023-04-15T01:25:55;18.70;43.70
41644;DHT22;44236;48.098;11.582;2023-04-15T01:28:21;18.60;43.50
41644;DHT22;44236;48.098;11.582;2023-04-15T01:30:46;18.60;43.50
41644;DHT22;44236;48.098;11.582;2023-04-15T01:33:12;18.60;43.60
41644;DHT22;44236;48.098;11.582;2023-04-15T01:35:38;18.70;43.60
41644;DHT22;44236;48.098;11.582;2023-04-15T01:38:08;18.70;43.60
41644;DHT22;44236;48.098;11.582;2023-04-15T01:40:34;18.60;43.50
41644;DHT22;44236;48.098;11.582;2023-04-15T01:43:03;18.70;43.60
41644;DHT22;44236;48.098;11.582;2023-04-15T01:45:29;18.60;43.50
41644;DHT22;44236;48.098;11.582;2023-04-15T01:47:54;18.60;43.40
41644;DHT22;44236;48.098;11.582;2023-04-15T01:50:20;18.60;43.50
41644;DHT22;44236;48.098;11.582;2023-04-15T01:52:46;18.60;43.50
41644;DHT22;44236;48.098;11.582;2023-04-15T01:55:13;18.60;43.40
41644;DHT22;44236;48.098;11.582;2023-04-15T01:57:39;18.60;43.50
41644;DHT22;44236;48.098;11.582;2023-04-15T02:00:06;18.60;43.40
41644;DHT22;44236;48.098;11.582;2023-04-15T02:02:34;18.70;44.10
41644;DHT22;44236;48.098;11.582;2023-04-15T02:05:00;18.70;43.50
41644;DHT22;44236;48.098;11.582;2023-04-15T02:07:26;18.60;43.40
41644;DHT22;44236;48.098;11.582;2023-04-15T02:09:53;18.60;43.40
41644;DHT22;44236;48.098;11.582;2023-04-15T02:12:19;18.60;43.40
41644;DHT22;44236;48.098;11.582;2023-04-15T02:14:44;18.60;43.30
41644;DHT22;44236;48.098;11.582;2023-04-15T02:17:10;18.60;43.40
41644;DHT22;44236;48.098;11.582;2023-04-15T02:19:36;18.60;43.40
41644;DHT22;44236;48.098;11.582;2023-04-15T02:22:02;18.60;43.40
41644;DHT22;44236;48.098;11.582;2023-04-15T02:24:29;18.60;43.30
41644;DHT22;44236;48.098;11.582;2023-04-15T02:26:55;18.60;43.30
41644;DHT22;44236;48.098;11.582;2023-04-15T02:29:21;18.60;43.40
41644;DHT22;44236;48.098;11.582;2023-04-15T02:31:58;18.60;43.30
41644;DHT22;44236;48.098;11.582;2023-04-15T02:34:24;18.60;43.30
41644;DHT22;44236;48.098;11.582;2023-04-15T02:36:51;18.30;43.20
41644;DHT22;44236;48.098;11.582;2023-04-15T02:39:21;18.60;43.30
41644;DHT22;44236;48.098;11.582;2023-04-15T02:41:47;18.70;43.30
41644;DHT22;44236;48.098;11.582;2023-04-15T02:44:16;18.60;43.30
41644;DHT22;44236;48.098;11.582;2023-04-15T02:46:45;18.60;43.20
41644;DHT22;44236;48.098;11.582;2023-04-15T02:49:15;18.60;43.30
41644;DHT22;44236;48.098;11.582;2023-04-15T02:51:40;18.60;43.30
41644;DHT22;44236;48.098;11.582;2023-04-15T02:54:06;18.60;43.30
41644;DHT22;44236;48.098;11.582;2023-04-15T02:56:33;18.60;43.30
41644;DHT22;44236;48.098;11.582;2023-04-15T02:58:58;18.60;43.20
41644;DHT22;44236;48.098;11.582;2023-04-15T03:01:24;18.60;43.20
41644;DHT22;44236;48.098;11.582;2023-04-15T03:03:50;18.60;43.20
41644;DHT22;44236;48.098;11.582;2023-04-15T03:06:16;18.60;43.20
41644;DHT22;44236;48.098;11.582;2023-04-15T03:08:42;18.60;43.20
41644;DHT22;44236;48.098;11.582;2023-04-15T03:11:07;18.60;43.20
41644;DHT22;44236;48.098;11.582;2023-04-15T03:13:33;18.60;43.20
41644;DHT22;44236;48.098;11.582;2023-04-15T03:15:58;18.60;43.20
41644;DHT22;44236;48.098;11.582;2023-04-15T03:18:24;18.50;43.20
41644;DHT22;44236;48.098;11.582;2023-04-15T03:20:50;18.60;43.20
41644;DHT22;44236;48.098;11.582;2023-04-15T03:23:15;18.50;43.10
41644;DHT22;44236;48.098;11.582;2023-04-15T03:25:41;18.50;43.20
41644;DHT22;44236;48.098;11.582;2023-04-15T03:28:07;18.50;43.10
41644;DHT22;44236;48.098;11.582;2023-04-15T03:30:32;18.50;43.10
41644;DHT22;44236;48.098;11.582;2023-04-15T03:32:58;18.50;43.10
41644;DHT22;44236;48.098;11.582;2023-04-15T03:35:24;18.50;43.10
41644;DHT22;44236;48.098;11.582;2023-04-15T03:37:49;18.50;43.10
41644;DHT22;44236;48.098;11.582;2023-04-15T03:40:15;18.50;43.10
41644;DHT22;44236;48.098;11.582;2023-04-15T03:42:44;18.50;43.00
41644;DHT22;44236;48.098;11.582;2023-04-15T03:45:10;18.60;43.20
41644;DHT22;44236;48.098;11.582;2023-04-15T03:47:36;18.50;43.00
41644;DHT22;44236;48.098;11.582;2023-04-15T03:50:01;18.50;43.10
41644;DHT22;44236;48.098;11.582;2023-04-15T03:52:27;18.50;43.10
41644;DHT22;44236;48.098;11.582;2023-04-15T03:54:53;18.50;43.10
41644;DHT22;44236;48.098;11.582;2023-04-15T03:57:18;18.50;43.10
41644;DHT22;44236;48.098;11.582;2023-04-15T03:59:44;18.50;43.00
41644;DHT22;44236;48.098;11.582;2023-04-15T04:02:09;18.50;43.10
41644;DHT22;44236;48.098;11.582;2023-04-15T04:04:35;18.50;43.10
41644;DHT22;44236;48.098;11.582;2023-04-15T04:07:00;18.50;43.00
41644;DHT22;44236;48.098;11.582;2023-04-15T04:09:26;18.50;43.00
41644;DHT22;44236;48.098;11.582;2023-04-15T04:11:52;18.50;43.60
41644;DHT22;44236;48.098;11.582;2023-04-15T04:14:17;18.50;43.10
41644;DHT22;44236;48.098;11.582;2023-04-15T04:16:46;18.50;43.10
41644;DHT22;44236;48.098;11.582;2023-04-15T04:19:12;18.50;43.00
41644;DHT22;44236;48.098;11.582;2023-04-15T04:21:39;18.50;43.00
41644;DHT22;44236;48.098;11.582;2023-04-15T04:24:04;18.50;43.00
41644;DHT22;44236;48.098;11.582;2023-04-15T04:26:30;18.50;43.00
41644;DHT22;44236;48.098;11.582;2023-04-15T04:28:56;18.50;43.10
41644;DHT22;44236;48.098;11.582;2023-04-15T04:31:21;18.50;43.00
41644;DHT22;44236;48.098;11.582;2023-04-15T04:33:47;18.50;43.10
41644;DHT22;44236;48.098;11.582;2023-04-15T04:36:13;18.50;43.00
41644;DHT22;44236;48.098;11.582;2023-04-15T04:38:38;18.50;43.00
41644;DHT22;44236;48.098;11.582;2023-04-15T04:41:04;18.50;43.00
41644;DHT22;44236;48.098;11.582;2023-04-15T04:43:30;18.60;43.00
41644;DHT22;44236;48.098;11.582;2023-04-15T04:45:55;18.60;43.00
41644;DHT22;44236;48.098;11.582;2023-04-15T04:48:21;18.60;42.90
41644;DHT22;44236;48.098;11.582;2023-04-15T04:50:47;18.70;43.00
41644;DHT22;44236;48.098;11.582;2023-04-15T04:53:13;18.70;42.90
41644;DHT22;44236;48.098;11.582;2023-04-15T04:55:39;18.70;43.00
41644;DHT22;44236;48.098;11.582;2023-04-15T04:58:04;18.70;42.80
41644;DHT22;44236;48.098;11.582;2023-04-15T05:00:30;18.70;42.80
41644;DHT22;44236;48.098;11.582;2023-04-15T05:02:56;18.80;42.90
41644;DHT22;44236;48.098;11.582;2023-04-15T05:05:21;18.80;43.00
41644;DHT22;44236;48.098;11.582;2023-04-15T05:07:47;18.80;43.10
41644;DHT22;44236;48.098;11.582;2023-04-15T05:10:14;18.80;43.20
41644;DHT22;44236;48.098;11.582;2023-04-15T05:12:42;18.80;42.80
41644;DHT22;44236;48.098;11.582;2023-04-15T05:15:08;18.90;43.20
41644;DHT22;44236;48.098;11.582;2023-04-15T05:17:34;18.90;43.40
41644;DHT22;44236;48.098;11.582;2023-04-15T05:20:00;18.90;43.30
41644;DHT22;44236;48.098;11.582;2023-04-15T05:22:26;18.90;43.50
41644;DHT22;44236;48.098;11.582;2023-04-15T05:24:51;18.90;43.60
41644;DHT22;44236;48.098;11.582;2023-04-15T05:27:17;18.90;43.40
41644;DHT22;44236;48.098;11.582;2023-04-15T05:29:43;18.90;43.60
41644;DHT22;44236;48.098;11.582;2023-04-15T05:32:09;18.90;43.40
41644;DHT22;44236;48.098;11.582;2023-04-15T05:34:35;18.90;43.50
41644;DHT22;44236;48.098;11.582;2023-04-15T05:37:00;18.90;43.50
41644;DHT22;44236;48.098;11.582;2023-04-15T05:39:26;18.90;43.60
41644;DHT22;44236;48.098;11.582;2023-04-15T05:41:52;18.90;43.30
41644;DHT22;44236;48.098;11.582;2023-04-15T05:44:18;19.00;43.50
41644;DHT22;44236;48.098;11.582;2023-04-15T05:46:43;19.00;43.60
41644;DHT22;44236;48.098;11.582;2023-04-15T05:49:09;19.00;43.60
41644;DHT22;44236;48.098;11.582;2023-04-15T05:51:35;19.00;43.60
41644;DHT22;44236;48.098;11.582;2023-04-15T05:54:00;19.00;43.70
41644;DHT22;44236;48.098;11.582;2023-04-15T05:56:26;19.00;43.60
41644;DHT22;44236;48.098;11.582;2023-04-15T05:58:52;19.10;43.80
41644;DHT22;44236;48.098;11.582;2023-04-15T06:01:17;19.00;43.50
41644;DHT22;44236;48.098;11.582;2023-04-15T06:03:43;19.00;43.70
41644;DHT22;44236;48.098;11.582;2023-04-15T06:06:09;19.00;43.70
41644;DHT22;44236;48.098;11.582;2023-04-15T06:08:35;19.00;43.80
41644;DHT22;44236;48.098;11.582;2023-04-15T06:11:00;19.10;43.80
41644;DHT22;44236;48.098;11.582;2023-04-15T06:13:26;19.00;43.70
41644;DHT22;44236;48.098;11.582;2023-04-15T06:15:52;19.10;43.60
41644;DHT22;44236;48.098;11.582;2023-04-15T06:18:18;19.10;43.60
41644;DHT22;44236;48.098;11.582;2023-04-15T06:20:44;19.10;43.10
41644;DHT22;44236;48.098;11.582;2023-04-15T06:23:10;19.10;43.20
41644;DHT22;44236;48.098;11.582;2023-04-15T06:25:36;19.10;43.90
41644;DHT22;44236;48.098;11.582;2023-04-15T06:28:02;19.10;43.70
41644;DHT22;44236;48.098;11.582;2023-04-15T06:30:27;19.20;43.60
41644;DHT22;44236;48.098;11.582;2023-04-15T06:32:54;19.20;44.30
41644;DHT22;44236;48.098;11.582;2023-04-15T06:35:20;19.20;43.80
41644;DHT22;44236;48.098;11.582;2023-04-15T06:37:46;19.20;43.30
41644;DHT22;44236;48.098;11.582;2023-04-15T06:40:12;19.20;43.90
41644;DHT22;44236;48.098;11.582;2023-04-15T06:42:38;19.20;44.60
41644;DHT22;44236;48.098;11.582;2023-04-15T06:45:04;19.20;43.00
41644;DHT22;44236;48.098;11.582;2023-04-15T06:47:30;19.20;44.10
41644;DHT22;44236;48.098;11.582;2023-04-15T06:49:55;19.20;44.70
41644;DHT22;44236;48.098;11.582;2023-04-15T06:52:21;19.30;42.50
41644;DHT22;44236;48.098;11.582;2023-04-15T06:54:46;19.30;43.70
41644;DHT22;44236;48.098;11.582;2023-04-15T06:57:12;19.30;44.50
41644;DHT22;44236;48.098;11.582;2023-04-15T06:59:37;19.30;44.60
41644;DHT22;44236;48.098;11.582;2023-04-15T07:02:03;19.30;45.10
41644;DHT22;44236;48.098;11.582;2023-04-15T07:04:29;19.20;44.80
41644;DHT22;44236;48.098;11.582;2023-04-15T07:06:54;19.20;45.10
41644;DHT22;44236;48.098;11.582;2023-04-15T07:09:22;19.20;44.80
41644;DHT22;44236;48.098;11.582;2023-04-15T07:11:47;19.20;44.20
41644;DHT22;44236;48.098;11.582;2023-04-15T07:14:13;19.20;44.50
41644;DHT22;44236;48.098;11.582;2023-04-15T07:16:39;19.20;44.20
41644;DHT22;44236;48.098;11.582;2023-04-15T07:19:05;19.30;44.30
41644;DHT22;44236;48.098;11.582;2023-04-15T07:21:30;19.30;43.70
41644;DHT22;44236;48.098;11.582;2023-04-15T07:23:56;19.30;44.00
41644;DHT22;44236;48.098;11.582;2023-04-15T07:26:23;19.30;43.90
41644;DHT22;44236;48.098;11.582;2023-04-15T07:28:49;19.30;44.30
41644;DHT22;44236;48.098;11.582;2023-04-15T07:31:15;19.30;43.30
41644;DHT22;44236;48.098;11.582;2023-04-15T07:33:41;19.40;43.50
41644;DHT22;44236;48.098;11.582;2023-04-15T07:36:07;19.40;44.10
41644;DHT22;44236;48.098;11.582;2023-04-15T07:38:32;19.40;44.10
41644;DHT22;44236;48.098;11.582;2023-04-15T07:40:58;19.40;44.20
41644;DHT22;44236;48.098;11.582;2023-04-15T07:43:24;19.40;44.60
41644;DHT22;44236;48.098;11.582;2023-04-15T07:45:49;19.40;45.00
41644;DHT22;44236;48.098;11.582;2023-04-15T07:48:15;19.30;44.80
41644;DHT22;44236;48.098;11.582;2023-04-15T07:50:41;19.30;45.10
41644;DHT22;44236;48.098;11.582;2023-04-15T07:53:07;19.30;43.80
41644;DHT22;44236;48.098;11.582;2023-04-15T07:55:32;19.20;44.70
41644;DHT22;44236;48.098;11.582;2023-04-15T07:57:58;19.20;44.90
41644;DHT22;44236;48.098;11.582;2023-04-15T08:00:24;19.20;44.90
41644;DHT22;44236;48.098;11.582;2023-04-15T08:02:51;19.20;44.80
41644;DHT22;44236;48.098;11.582;2023-04-15T08:05:18;19.20;43.30
41644;DHT22;44236;48.098;11.582;2023-04-15T08:07:44;19.20;43.80
41644;DHT22;44236;48.098;11.582;2023-04-15T08:10:10;19.20;44.30
41644;DHT22;44236;48.098;11.582;2023-04-15T08:12:36;19.20;43.80
41644;DHT22;44236;48.098;11.582;2023-04-15T08:15:02;19.30;44.00
41644;DHT22;44236;48.098;11.582;2023-04-15T08:17:28;19.30;44.20
41644;DHT22;44236;48.098;11.582;2023-04-15T08:19:54;19.40;44.00
41644;DHT22;44236;48.098;11.582;2023-04-15T08:22:19;19.40;44.10
41644;DHT22;44236;48.098;11.582;2023-04-15T08:24:45;19.40;44.10
41644;DHT22;44236;48.098;11.582;2023-04-15T08:27:11;19.40;44.00
41644;DHT22;44236;48.098;11.582;2023-04-15T08:29:36;19.50;44.30
41644;DHT22;44236;48.098;11.582;2023-04-15T08:32:02;19.40;44.10
41644;DHT22;44236;48.098;11.582;2023-04-15T08:34:28;19.40;43.90
41644;DHT22;44236;48.098;11.582;2023-04-15T08:36:54;19.50;44.20
41644;DHT22;44236;48.098;11.582;2023-04-15T08:39:20;19.50;44.80
41644;DHT22;44236;48.098;11.582;2023-04-15T08:41:47;19.50;44.60
41644;DHT22;44236;48.098;11.582;2023-04-15T08:44:16;19.50;44.90
41644;DHT22;44236;48.098;11.582;2023-04-15T08:46:42;19.50;45.00
41644;DHT22;44236;48.098;11.582;2023-04-15T08:49:12;19.50;44.40
41644;DHT22;44236;48.098;11.582;2023-04-15T08:51:41;19.50;45.10
41644;DHT22;44236;48.098;11.582;2023-04-15T08:54:09;19.40;44.90
41644;DHT22;44236;48.098;11.582;2023-04-15T08:56:35;19.50;44.80
41644;DHT22;44236;48.098;11.582;2023-04-15T08:59:01;19.40;44.90
41644;DHT22;44236;48.098;11.582;2023-04-15T09:01:28;19.20;43.30
41644;DHT22;44236;48.098;11.582;2023-04-15T09:03:55;18.90;42.60
41644;DHT22;44236;48.098;11.582;2023-04-15T09:06:21;18.70;41.90
41644;DHT22;44236;48.098;11.582;2023-04-15T09:08:47;18.50;41.20
41644;DHT22;44236;48.098;11.582;2023-04-15T09:11:13;18.30;41.40
41644;DHT22;44236;48.098;11.582;2023-04-15T09:13:39;18.30;42.00
41644;DHT22;44236;48.098;11.582;2023-04-15T09:16:05;18.40;41.00
41644;DHT22;44236;48.098;11.582;2023-04-15T09:18:34;18.20;40.60
41644;DHT22;44236;48.098;11.582;2023-04-15T09:23:34;17.80;41.20
41644;DHT22;44236;48.098;11.582;2023-04-15T09:26:01;17.70;41.20
41644;DHT22;44236;48.098;11.582;2023-04-15T09:28:28;17.70;41.40
41644;DHT22;44236;48.098;11.582;2023-04-15T09:30:58;17.70;41.70
41644;DHT22;44236;48.098;11.582;2023-04-15T09:33:24;17.70;41.30
41644;DHT22;44236;48.098;11.582;2023-04-15T09:36:11;17.70;41.70
41644;DHT22;44236;48.098;11.582;2023-04-15T09:38:56;17.90;41.90
41644;DHT22;44236;48.098;11.582;2023-04-15T09:41:23;17.90;41.70
41644;DHT22;44236;48.098;11.582;2023-04-15T09:43:49;17.80;41.30
41644;DHT22;44236;48.098;11.582;2023-04-15T09:46:14;17.80;41.10
41644;DHT22;44236;48.098;11.582;2023-04-15T09:48:40;17.70;41.60
41644;DHT22;44236;48.098;11.582;2023-04-15T09:51:06;17.70;41.90
41644;DHT22;44236;48.098;11.582;2023-04-15T09:53:33;17.80;41.70
41644;DHT22;44236;48.098;11.582;2023-04-15T09:55:59;17.90;41.80
41644;DHT22;44236;48.098;11.582;2023-04-15T09:58:28;18.00;42.00
41644;DHT22;44236;48.098;11.582;2023-04-15T10:00:56;18.20;42.50
41644;DHT22;44236;48.098;11.582;2023-04-15T10:03:26;18.30;42.50
41644;DHT22;44236;48.098;11.582;2023-04-15T10:05:54;18.40;42.60
41644;DHT22;44236;48.098;11.582;2023-04-15T10:08:22;18.50;42.80
41644;DHT22;44236;48.098;11.582;2023-04-15T10:10:49;18.50;42.90
41644;DHT22;44236;48.098;11.582;2023-04-15T10:13:22;18.60;43.00
41644;DHT22;44236;48.098;11.582;2023-04-15T10:15:59;18.60;42.70
41644;DHT22;44236;48.098;11.582;2023-04-15T10:18:26;18.70;43.00
41644;DHT22;44236;48.098;11.582;2023-04-15T10:20:53;18.70;42.90
41644;DHT22;44236;48.098;11.582;2023-04-15T10:23:19;18.70;43.30
41644;DHT22;44236;48.098;11.582;2023-04-15T10:25:46;18.80;43.20
41644;DHT22;44236;48.098;11.582;2023-04-15T10:28:14;18.80;43.30
41644;DHT22;44236;48.098;11.582;2023-04-15T10:30:41;18.80;43.40
41644;DHT22;44236;48.098;11.582;2023-04-15T10:33:08;18.80;43.20
41644;DHT22;44236;48.098;11.582;2023-04-15T10:35:35;18.90;43.40
41644;DHT22;44236;48.098;11.582;2023-04-15T10:38:02;18.90;43.60
41644;DHT22;44236;48.098;11.582;2023-04-15T10:40:41;18.90;43.40
41644;DHT22;44236;48.098;11.582;2023-04-15T10:43:06;18.90;43.60
41644;DHT22;44236;48.098;11.582;2023-04-15T10:45:48;18.90;43.60
41644;DHT22;44236;48.098;11.582;2023-04-15T10:48:15;18.90;43.40
41644;DHT22;44236;48.098;11.582;2023-04-15T10:50:59;19.00;43.70
41644;DHT22;44236;48.098;11.582;2023-04-15T10:53:28;19.00;43.90
41644;DHT22;44236;48.098;11.582;2023-04-15T10:55:56;19.00;43.80
41644;DHT22;44236;48.098;11.582;2023-04-15T10:58:23;19.00;43.80
41644;DHT22;44236;48.098;11.582;2023-04-15T11:00:52;19.10;43.90
41644;DHT22;44236;48.098;11.582;2023-04-15T11:03:36;19.00;44.20
41644;DHT22;44236;48.098;11.582;2023-04-15T11:06:04;19.00;44.00
41644;DHT22;44236;48.098;11.582;2023-04-15T11:08:56;19.10;44.20
41644;DHT22;44236;48.098;11.582;2023-04-15T11:14:14;19.10;44.20
41644;DHT22;44236;48.098;11.582;2023-04-15T11:16:43;19.10;44.30
41644;DHT22;44236;48.098;11.582;2023-04-15T11:19:09;19.10;44.00
41644;DHT22;44236;48.098;11.582;2023-04-15T11:21:35;19.10;44.40
41644;DHT22;44236;48.098;11.582;2023-04-15T11:24:01;19.10;44.10
41644;DHT22;44236;48.098;11.582;2023-04-15T11:26:26;19.10;44.30
41644;DHT22;44236;48.098;11.582;2023-04-15T11:28:52;19.20;44.20
41644;DHT22;44236;48.098;11.582;2023-04-15T11:31:19;19.20;44.20
41644;DHT22;44236;48.098;11.582;2023-04-15T11:33:47;19.20;44.50
41644;DHT22;44236;48.098;11.582;2023-04-15T11:36:17;19.20;44.60
41644;DHT22;44236;48.098;11.582;2023-04-15T11:38:45;19.20;44.80
41644;DHT22;44236;48.098;11.582;2023-04-15T11:41:11;19.20;45.10
41644;DHT22;44236;48.098;11.582;2023-04-15T11:43:37;19.20;45.60
41644;DHT22;44236;48.098;11.582;2023-04-15T11:46:03;19.10;45.10
41644;DHT22;44236;48.098;11.582;2023-04-15T11:48:31;18.70;43.20
41644;DHT22;44236;48.098;11.582;2023-04-15T11:50:59;18.40;42.10
41644;DHT22;44236;48.098;11.582;2023-04-15T11:53:42;18.00;41.80
41644;DHT22;44236;48.098;11.582;2023-04-15T11:56:17;17.90;42.90
41644;DHT22;44236;48.098;11.582;2023-04-15T11:58:43;17.80;43.10
41644;DHT22;44236;48.098;11.582;2023-04-15T12:01:10;17.90;43.70
41644;DHT22;44236;48.098;11.582;2023-04-15T12:03:42;18.00;44.10
41644;DHT22;44236;48.098;11.582;2023-04-15T12:06:15;18.20;44.20
41644;DHT22;44236;48.098;11.582;2023-04-15T12:14:27;18.50;44.30
41644;DHT22;44236;48.098;11.582;2023-04-15T12:17:05;18.60;44.50
41644;DHT22;44236;48.098;11.582;2023-04-15T12:19:36;18.60;44.60
41644;DHT22;44236;48.098;11.582;2023-04-15T12:24:32;18.70;44.80
41644;DHT22;44236;48.098;11.582;2023-04-15T12:27:05;18.70;44.70
41644;DHT22;44236;48.098;11.582;2023-04-15T12:29:33;18.80;44.70
41644;DHT22;44236;48.098;11.582;2023-04-15T12:32:09;18.80;44.10
41644;DHT22;44236;48.098;11.582;2023-04-15T12:34:40;18.80;45.20
41644;DHT22;44236;48.098;11.582;2023-04-15T12:37:08;18.80;45.10
41644;DHT22;44236;48.098;11.582;2023-04-15T12:39:36;18.80;45.20
41644;DHT22;44236;48.098;11.582;2023-04-15T12:42:03;18.80;45.30
41644;DHT22;44236;48.098;11.582;2023-04-15T12:44:29;18.90;45.50
41644;DHT22;44236;48.098;11.582;2023-04-15T12:46:55;18.90;46.00
41644;DHT22;44236;48.098;11.582;2023-04-15T12:49:21;18.90;46.00
41644;DHT22;44236;48.098;11.582;2023-04-15T12:51:49;18.90;45.80
41644;DHT22;44236;48.098;11.582;2023-04-15T12:54:18;18.90;45.90
41644;DHT22;44236;48.098;11.582;2023-04-15T12:56:45;18.90;46.00
41644;DHT22;44236;48.098;11.582;2023-04-15T12:59:11;18.90;46.10
41644;DHT22;44236;48.098;11.582;2023-04-15T13:01:38;19.00;46.10
41644;DHT22;44236;48.098;11.582;2023-04-15T13:04:04;18.90;46.30
41644;DHT22;44236;48.098;11.582;2023-04-15T13:06:30;19.00;46.40
41644;DHT22;44236;48.098;11.582;2023-04-15T13:08:58;19.00;46.80
41644;DHT22;44236;48.098;11.582;2023-04-15T13:11:24;19.00;46.80
41644;DHT22;44236;48.098;11.582;2023-04-15T13:13:50;19.00;47.00
41644;DHT22;44236;48.098;11.582;2023-04-15T13:16:17;19.00;47.00
41644;DHT22;44236;48.098;11.582;2023-04-15T13:18:43;19.00;47.20
41644;DHT22;44236;48.098;11.582;2023-04-15T13:21:10;19.00;47.30
41644;DHT22;44236;48.098;11.582;2023-04-15T13:23:36;19.00;47.30
41644;DHT22;44236;48.098;11.582;2023-04-15T13:26:02;19.00;47.30
41644;DHT22;44236;48.098;11.582;2023-04-15T13:28:27;19.00;47.50
41644;DHT22;44236;48.098;11.582;2023-04-15T13:30:53;19.00;47.40
41644;DHT22;44236;48.098;11.582;2023-04-15T13:33:19;19.00;47.60
41644;DHT22;44236;48.098;11.582;2023-04-15T13:35:44;19.00;47.50
41644;DHT22;44236;48.098;11.582;2023-04-15T13:38:13;19.00;47.40
41644;DHT22;44236;48.098;11.582;2023-04-15T13:40:38;19.00;47.70
41644;DHT22;44236;48.098;11.582;2023-04-15T13:43:04;19.00;47.70
41644;DHT22;44236;48.098;11.582;2023-04-15T13:45:30;19.00;47.70
41644;DHT22;44236;48.098;11.582;2023-04-15T13:47:56;19.00;48.10
41644;DHT22;44236;48.098;11.582;2023-04-15T13:50:22;19.00;48.00
41644;DHT22;44236;48.098;11.582;2023-04-15T13:52:47;19.00;48.00
41644;DHT22;44236;48.098;11.582;2023-04-15T13:55:13;19.00;48.00
41644;DHT22;44236;48.098;11.582;2023-04-15T13:57:39;19.00;48.00
41644;DHT22;44236;48.098;11.582;2023-04-15T14:00:05;19.00;48.00
41644;DHT22;44236;48.098;11.582;2023-04-15T14:02:31;19.00;48.00
41644;DHT22;44236;48.098;11.582;2023-04-15T14:04:56;19.00;48.10
41644;DHT22;44236;48.098;11.582;2023-04-15T14:07:22;19.00;48.20
41644;DHT22;44236;48.098;11.582;2023-04-15T14:09:48;19.00;48.20
41644;DHT22;44236;48.098;11.582;2023-04-15T14:12:13;19.00;48.10
41644;DHT22;44236;48.098;11.582;2023-04-15T14:14:39;19.00;48.10
41644;DHT22;44236;48.098;11.582;2023-04-15T14:17:05;19.00;48.20
41644;DHT22;44236;48.098;11.582;2023-04-15T14:19:31;19.00;48.10
41644;DHT22;44236;48.098;11.582;2023-04-15T14:21:57;19.00;48.00
41644;DHT22;44236;48.098;11.582;2023-04-15T14:24:23;19.00;48.20
41644;DHT22;44236;48.098;11.582;2023-04-15T14:26:49;19.00;48.10
41644;DHT22;44236;48.098;11.582;2023-04-15T14:29:15;19.00;48.20
41644;DHT22;44236;48.098;11.582;2023-04-15T14:31:41;19.00;48.10
41644;DHT22;44236;48.098;11.582;2023-04-15T14:34:08;19.00;48.10
41644;DHT22;44236;48.098;11.582;2023-04-15T14:36:34;19.10;48.20
41644;DHT22;44236;48.098;11.582;2023-04-15T14:39:00;19.00;48.30
41644;DHT22;44236;48.098;11.582;2023-04-15T14:41:25;19.00;48.20
41644;DHT22;44236;48.098;11.582;2023-04-15T14:43:51;19.00;48.30
41644;DHT22;44236;48.098;11.582;2023-04-15T14:46:17;19.00;48.30
41644;DHT22;44236;48.098;11.582;2023-04-15T14:48:42;19.00;48.30
41644;DHT22;44236;48.098;11.582;2023-04-15T14:51:08;19.00;48.40
41644;DHT22;44236;48.098;11.582;2023-04-15T14:53:34;19.00;48.30
41644;DHT22;44236;48.098;11.582;2023-04-15T14:55:59;19.00;48.40
41644;DHT22;44236;48.098;11.582;2023-04-15T14:58:25;19.00;48.40
41644;DHT22;44236;48.098;11.582;2023-04-15T15:00:50;19.00;48.40
41644;DHT22;44236;48.098;11.582;2023-04-15T15:03:16;19.00;48.30
41644;DHT22;44236;48.098;11.582;2023-04-15T15:05:44;19.00;48.40
41644;DHT22;44236;48.098;11.582;2023-04-15T15:08:13;19.00;48.40
41644;DHT22;44236;48.098;11.582;2023-04-15T15:10:39;19.00;48.30
41644;DHT22;44236;48.098;11.582;2023-04-15T15:13:06;19.00;48.40
41644;DHT22;44236;48.098;11.582;2023-04-15T15:15:33;19.00;48.40
41644;DHT22;44236;48.098;11.582;2023-04-15T15:17:59;19.00;48.40
41644;DHT22;44236;48.098;11.582;2023-04-15T15:20:25;19.00;48.40
41644;DHT22;44236;48.098;11.582;2023-04-15T15:22:51;19.00;48.50
41644;DHT22;44236;48.098;11.582;2023-04-15T15:25:16;19.00;48.90